303  
SXUS95 KTFX 200700  
MTTTFX  
 
AREA AWOS OBSERVATIONS  
NATIONAL WEATHER SERVICE GREAT FALLS MT  
100 AM MDT WED OCT 20 2021  
 
METAR KHRF 200655Z AUTO 16005KT 10SM CLR 04/M01 A3001 RMK AO2 HAMILTON  
 
CLICK HERE TO GO TO PREVIOUS BULLETINS.

The Nexlab MT Page Main Text Page